sensor_id;sensor_type;location;lat;lon;timestamp;pressure;altitude;pressure_sealevel;temperature;humidity
73455;BME280;61690;51.824;6.306;2023-06-01T00:01:39;102244.88;;;20.35;47.72
73455;BME280;61690;51.824;6.306;2023-06-01T00:04:05;102231.72;;;20.33;47.92
73455;BME280;61690;51.824;6.306;2023-06-01T00:06:30;102236.31;;;20.30;47.50
73455;BME280;61690;51.824;6.306;2023-06-01T00:08:57;102241.59;;;20.30;47.68
73455;BME280;61690;51.824;6.306;2023-06-01T00:11:22;102234.63;;;20.29;47.71
73455;BME280;61690;51.824;6.306;2023-06-01T00:13:49;102231.09;;;20.28;47.69
73455;BME280;61690;51.824;6.306;2023-06-01T00:16:15;102232.97;;;20.26;47.69
73455;BME280;61690;51.824;6.306;2023-06-01T00:18:40;102228.63;;;20.25;47.97
73455;BME280;61690;51.824;6.306;2023-06-01T00:21:06;102230.50;;;20.23;47.72
73455;BME280;61690;51.824;6.306;2023-06-01T00:23:31;102227.06;;;20.21;47.92
73455;BME280;61690;51.824;6.306;2023-06-01T00:25:57;102233.22;;;20.22;48.11
73455;BME280;61690;51.824;6.306;2023-06-01T00:28:23;102233.22;;;20.22;48.06
73455;BME280;61690;51.824;6.306;2023-06-01T00:30:48;102236.78;;;20.21;48.23
73455;BME280;61690;51.824;6.306;2023-06-01T00:33:14;102234.13;;;20.21;48.23
73455;BME280;61690;51.824;6.306;2023-06-01T00:35:39;102234.31;;;20.17;48.09
73455;BME280;61690;51.824;6.306;2023-06-01T00:38:04;102231.66;;;20.17;48.22
73455;BME280;61690;51.824;6.306;2023-06-01T00:40:32;102237.94;;;20.15;48.20
73455;BME280;61690;51.824;6.306;2023-06-01T00:42:57;102228.41;;;20.12;48.41
73455;BME280;61690;51.824;6.306;2023-06-01T00:45:22;102234.53;;;20.13;48.03
73455;BME280;61690;51.824;6.306;2023-06-01T00:47:48;102238.00;;;20.13;48.08
73455;BME280;61690;51.824;6.306;2023-06-01T00:50:13;102237.25;;;20.11;48.21
73455;BME280;61690;51.824;6.306;2023-06-01T00:52:39;102241.75;;;20.09;48.27
73455;BME280;61690;51.824;6.306;2023-06-01T00:55:06;102236.56;;;20.08;48.36
73455;BME280;61690;51.824;6.306;2023-06-01T00:57:32;102236.38;;;20.11;48.08
73455;BME280;61690;51.824;6.306;2023-06-01T00:59:58;102239.28;;;20.06;48.22
73455;BME280;61690;51.824;6.306;2023-06-01T01:02:23;102238.25;;;20.09;48.41
73455;BME280;61690;51.824;6.306;2023-06-01T01:04:48;102245.34;;;20.08;48.50
73455;BME280;61690;51.824;6.306;2023-06-01T01:10:31;102253.41;;;20.05;48.44
73455;BME280;61690;51.824;6.306;2023-06-01T01:13:05;102257.84;;;20.05;48.33
73455;BME280;61690;51.824;6.306;2023-06-01T01:15:41;102253.97;;;20.12;48.37
73455;BME280;61690;51.824;6.306;2023-06-01T01:18:12;102254.41;;;20.03;48.26
73455;BME280;61690;51.824;6.306;2023-06-01T01:20:44;102253.47;;;20.04;48.23
73455;BME280;61690;51.824;6.306;2023-06-01T01:26:07;102244.63;;;20.05;48.16
73455;BME280;61690;51.824;6.306;2023-06-01T01:28:41;102241.16;;;20.04;48.35
73455;BME280;61690;51.824;6.306;2023-06-01T01:31:09;102239.50;;;20.02;48.21
73455;BME280;61690;51.824;6.306;2023-06-01T01:33:36;102240.44;;;20.01;48.29
73455;BME280;61690;51.824;6.306;2023-06-01T01:36:03;102251.84;;;20.01;48.65
73455;BME280;61690;51.824;6.306;2023-06-01T01:38:33;102238.00;;;19.96;48.74
73455;BME280;61690;51.824;6.306;2023-06-01T01:40:58;102235.38;;;19.96;48.44
73455;BME280;61690;51.824;6.306;2023-06-01T01:43:24;102239.88;;;19.94;48.69
73455;BME280;61690;51.824;6.306;2023-06-01T01:46:13;102245.94;;;19.96;48.47
73455;BME280;61690;51.824;6.306;2023-06-01T01:48:48;102243.53;;;19.91;48.63
73455;BME280;61690;51.824;6.306;2023-06-01T01:51:22;102250.38;;;19.95;48.38
73455;BME280;61690;51.824;6.306;2023-06-01T01:53:51;102253.97;;;19.94;48.61
73455;BME280;61690;51.824;6.306;2023-06-01T01:56:18;102248.56;;;19.96;48.58
73455;BME280;61690;51.824;6.306;2023-06-01T01:58:45;102252.16;;;19.95;48.53
73455;BME280;61690;51.824;6.306;2023-06-01T02:01:10;102255.00;;;19.90;48.35
73455;BME280;61690;51.824;6.306;2023-06-01T02:03:37;102251.38;;;19.93;48.61
73455;BME280;61690;51.824;6.306;2023-06-01T02:06:02;102248.81;;;19.91;48.69
73455;BME280;61690;51.824;6.306;2023-06-01T02:08:27;102259.38;;;19.91;48.71
73455;BME280;61690;51.824;6.306;2023-06-01T02:10:53;102253.19;;;19.92;48.41
73455;BME280;61690;51.824;6.306;2023-06-01T02:13:18;102244.63;;;19.87;48.75
73455;BME280;61690;51.824;6.306;2023-06-01T02:15:43;102248.03;;;19.89;48.46
73455;BME280;61690;51.824;6.306;2023-06-01T02:18:08;102247.41;;;19.84;48.92
73455;BME280;61690;51.824;6.306;2023-06-01T02:20:34;102245.41;;;19.89;48.78
73455;BME280;61690;51.824;6.306;2023-06-01T02:22:59;102241.97;;;19.87;48.74
73455;BME280;61690;51.824;6.306;2023-06-01T02:25:24;102246.47;;;19.85;48.60
73455;BME280;61690;51.824;6.306;2023-06-01T02:27:50;102245.84;;;19.80;48.80
73455;BME280;61690;51.824;6.306;2023-06-01T02:30:15;102251.06;;;19.82;48.80
73455;BME280;61690;51.824;6.306;2023-06-01T02:32:41;102243.19;;;19.80;48.55
73455;BME280;61690;51.824;6.306;2023-06-01T02:35:10;102244.06;;;19.81;48.66
73455;BME280;61690;51.824;6.306;2023-06-01T02:37:35;102244.06;;;19.81;48.89
73455;BME280;61690;51.824;6.306;2023-06-01T02:40:00;102242.19;;;19.83;48.98
73455;BME280;61690;51.824;6.306;2023-06-01T02:42:25;102245.06;;;19.78;48.72
73455;BME280;61690;51.824;6.306;2023-06-01T02:44:51;102247.72;;;19.78;48.76
73455;BME280;61690;51.824;6.306;2023-06-01T02:47:16;102234.50;;;19.78;48.89
73455;BME280;61690;51.824;6.306;2023-06-01T02:49:41;102242.50;;;19.76;48.99
73455;BME280;61690;51.824;6.306;2023-06-01T02:52:07;102233.72;;;19.76;48.51
73455;BME280;61690;51.824;6.306;2023-06-01T02:54:32;102231.94;;;19.76;48.45
73455;BME280;61690;51.824;6.306;2023-06-01T02:56:57;102232.94;;;19.74;48.79
73455;BME280;61690;51.824;6.306;2023-06-01T02:59:23;102229.53;;;19.72;48.85
73455;BME280;61690;51.824;6.306;2023-06-01T03:01:48;102230.25;;;19.75;48.45
73455;BME280;61690;51.824;6.306;2023-06-01T03:04:13;102232.94;;;19.74;48.84
73455;BME280;61690;51.824;6.306;2023-06-01T03:06:40;102239.94;;;19.75;48.47
73455;BME280;61690;51.824;6.306;2023-06-01T03:09:06;102236.38;;;19.76;48.75
73455;BME280;61690;51.824;6.306;2023-06-01T03:11:40;102240.13;;;19.70;49.05
73455;BME280;61690;51.824;6.306;2023-06-01T03:14:05;102229.38;;;19.75;48.84
73455;BME280;61690;51.824;6.306;2023-06-01T03:16:31;102233.06;;;19.71;48.54
73455;BME280;61690;51.824;6.306;2023-06-01T03:18:56;102233.06;;;19.71;48.64
73455;BME280;61690;51.824;6.306;2023-06-01T03:21:21;102230.38;;;19.72;48.58
73455;BME280;61690;51.824;6.306;2023-06-01T03:23:46;102231.38;;;19.70;48.89
73455;BME280;61690;51.824;6.306;2023-06-01T03:26:12;102239.22;;;19.71;48.79
73455;BME280;61690;51.824;6.306;2023-06-01T03:28:38;102230.47;;;19.69;48.89
73455;BME280;61690;51.824;6.306;2023-06-01T03:31:04;102233.06;;;19.71;48.64
73455;BME280;61690;51.824;6.306;2023-06-01T03:33:29;102225.13;;;19.71;48.95
73455;BME280;61690;51.824;6.306;2023-06-01T03:35:55;102222.56;;;19.69;48.86
73455;BME280;61690;51.824;6.306;2023-06-01T03:38:21;102218.38;;;19.65;49.05
73455;BME280;61690;51.824;6.306;2023-06-01T03:40:47;102222.03;;;19.63;48.70
73455;BME280;61690;51.824;6.306;2023-06-01T03:43:12;102227.94;;;19.68;48.79
73455;BME280;61690;51.824;6.306;2023-06-01T03:45:37;102222.75;;;19.66;49.05
73455;BME280;61690;51.824;6.306;2023-06-01T03:48:02;102224.59;;;19.64;48.96
73455;BME280;61690;51.824;6.306;2023-06-01T03:50:28;102228.22;;;19.62;48.79
73455;BME280;61690;51.824;6.306;2023-06-01T03:52:54;102229.03;;;19.64;48.68
73455;BME280;61690;51.824;6.306;2023-06-01T03:55:19;102229.09;;;19.62;48.64
73455;BME280;61690;51.824;6.306;2023-06-01T03:57:45;102232.66;;;19.61;48.87
73455;BME280;61690;51.824;6.306;2023-06-01T04:00:11;102226.41;;;19.64;48.89
73455;BME280;61690;51.824;6.306;2023-06-01T04:02:47;102226.41;;;19.64;48.61
73455;BME280;61690;51.824;6.306;2023-06-01T04:05:17;102231.81;;;19.61;48.79
73455;BME280;61690;51.824;6.306;2023-06-01T04:07:44;102227.44;;;19.59;48.61
73455;BME280;61690;51.824;6.306;2023-06-01T04:10:10;102229.81;;;19.66;48.58
73455;BME280;61690;51.824;6.306;2023-06-01T04:12:37;102231.66;;;19.64;48.47
73455;BME280;61690;51.824;6.306;2023-06-01T04:15:03;102233.44;;;19.63;48.91
73455;BME280;61690;51.824;6.306;2023-06-01T04:17:28;102234.50;;;19.59;48.85
73455;BME280;61690;51.824;6.306;2023-06-01T04:19:53;102233.50;;;19.62;48.95
73455;BME280;61690;51.824;6.306;2023-06-01T04:22:19;102230.84;;;19.62;48.93
73455;BME280;61690;51.824;6.306;2023-06-01T04:24:44;102244.22;;;19.58;48.72
73455;BME280;61690;51.824;6.306;2023-06-01T04:27:09;102232.72;;;19.59;48.85
73455;BME280;61690;51.824;6.306;2023-06-01T04:29:35;102224.81;;;19.59;48.74
73455;BME280;61690;51.824;6.306;2023-06-01T04:32:04;102228.31;;;19.60;48.94
73455;BME280;61690;51.824;6.306;2023-06-01T04:34:30;102231.03;;;19.58;48.60
73455;BME280;61690;51.824;6.306;2023-06-01T04:36:55;102233.66;;;19.58;48.74
73455;BME280;61690;51.824;6.306;2023-06-01T04:39:21;102229.31;;;19.57;48.65
73455;BME280;61690;51.824;6.306;2023-06-01T04:41:46;102232.81;;;19.58;48.82
73455;BME280;61690;51.824;6.306;2023-06-01T04:44:12;102231.94;;;19.57;48.78
73455;BME280;61690;51.824;6.306;2023-06-01T04:46:38;102242.38;;;19.61;48.63
73455;BME280;61690;51.824;6.306;2023-06-01T04:49:05;102239.09;;;19.55;48.73
73455;BME280;61690;51.824;6.306;2023-06-01T04:51:30;102232.88;;;19.56;48.74
73455;BME280;61690;51.824;6.306;2023-06-01T04:53:56;102240.88;;;19.55;48.68
73455;BME280;61690;51.824;6.306;2023-06-01T04:56:22;102232.72;;;19.59;48.49
73455;BME280;61690;51.824;6.306;2023-06-01T04:58:55;102234.59;;;19.57;48.67
73455;BME280;61690;51.824;6.306;2023-06-01T05:01:24;102235.53;;;19.56;48.62
73455;BME280;61690;51.824;6.306;2023-06-01T05:03:51;102240.09;;;19.53;48.96
73455;BME280;61690;51.824;6.306;2023-06-01T05:06:18;102234.69;;;19.56;48.73
73455;BME280;61690;51.824;6.306;2023-06-01T05:08:44;102239.38;;;19.49;48.80
73455;BME280;61690;51.824;6.306;2023-06-01T05:11:10;102244.53;;;19.52;48.70
73455;BME280;61690;51.824;6.306;2023-06-01T05:13:37;102244.53;;;19.52;48.44
73455;BME280;61690;51.824;6.306;2023-06-01T05:16:03;102240.09;;;19.53;48.55
73455;BME280;61690;51.824;6.306;2023-06-01T05:18:29;102243.66;;;19.52;48.65
73455;BME280;61690;51.824;6.306;2023-06-01T05:20:55;102240.28;;;19.48;48.71
73455;BME280;61690;51.824;6.306;2023-06-01T05:23:20;102241.13;;;19.50;48.80
73455;BME280;61690;51.824;6.306;2023-06-01T05:25:46;102241.97;;;19.51;48.47
73455;BME280;61690;51.824;6.306;2023-06-01T05:28:11;102238.38;;;19.52;48.43
73455;BME280;61690;51.824;6.306;2023-06-01T05:30:36;102244.66;;;19.49;48.58
73455;BME280;61690;51.824;6.306;2023-06-01T05:33:01;102240.94;;;19.53;48.34
73455;BME280;61690;51.824;6.306;2023-06-01T05:35:28;102240.28;;;19.48;48.43
73455;BME280;61690;51.824;6.306;2023-06-01T05:37:54;102240.47;;;19.45;48.60
73455;BME280;61690;51.824;6.306;2023-06-01T05:40:19;102243.03;;;19.47;48.84
73455;BME280;61690;51.824;6.306;2023-06-01T05:42:44;102235.03;;;19.48;48.51
73455;BME280;61690;51.824;6.306;2023-06-01T05:45:10;102236.81;;;19.48;48.32
73455;BME280;61690;51.824;6.306;2023-06-01T05:47:35;102242.09;;;19.48;48.43
73455;BME280;61690;51.824;6.306;2023-06-01T05:50:00;102231.69;;;19.45;48.66
73455;BME280;61690;51.824;6.306;2023-06-01T05:52:26;102242.94;;;19.48;48.32
73455;BME280;61690;51.824;6.306;2023-06-01T05:54:52;102246.47;;;19.49;48.14
73455;BME280;61690;51.824;6.306;2023-06-01T05:57:19;102247.31;;;19.49;48.28
73455;BME280;61690;51.824;6.306;2023-06-01T05:59:44;102249.94;;;19.49;48.59
73455;BME280;61690;51.824;6.306;2023-06-01T06:02:11;102246.47;;;19.49;48.50
73455;BME280;61690;51.824;6.306;2023-06-01T06:04:36;102251.03;;;19.45;48.36
73455;BME280;61690;51.824;6.306;2023-06-01T06:07:01;102243.09;;;19.45;48.43
73455;BME280;61690;51.824;6.306;2023-06-01T06:09:27;102253.78;;;19.42;48.36
73455;BME280;61690;51.824;6.306;2023-06-01T06:11:52;102249.59;;;19.38;48.59
73455;BME280;61690;51.824;6.306;2023-06-01T06:14:18;102240.75;;;19.39;48.67
73455;BME280;61690;51.824;6.306;2023-06-01T06:16:43;102237.25;;;19.38;48.66
73455;BME280;61690;51.824;6.306;2023-06-01T06:19:08;102239.03;;;19.38;48.30
73455;BME280;61690;51.824;6.306;2023-06-01T06:21:34;102237.25;;;19.38;48.49
73455;BME280;61690;51.824;6.306;2023-06-01T06:24:00;102237.97;;;19.42;48.34
73455;BME280;61690;51.824;6.306;2023-06-01T06:26:26;102238.25;;;19.36;48.41
73455;BME280;61690;51.824;6.306;2023-06-01T06:28:51;102238.97;;;19.39;48.28
73455;BME280;61690;51.824;6.306;2023-06-01T06:31:17;102245.09;;;19.40;48.64
73455;BME280;61690;51.824;6.306;2023-06-01T06:33:42;102251.31;;;19.39;48.62
73455;BME280;61690;51.824;6.306;2023-06-01T06:36:07;102243.25;;;19.42;48.45
73455;BME280;61690;51.824;6.306;2023-06-01T06:38:33;102240.66;;;19.40;48.41
73455;BME280;61690;51.824;6.306;2023-06-01T06:40:58;102243.41;;;19.39;48.56
73455;BME280;61690;51.824;6.306;2023-06-01T06:43:23;102237.25;;;19.38;48.59
73455;BME280;61690;51.824;6.306;2023-06-01T06:45:49;102253.97;;;19.39;48.29
73455;BME280;61690;51.824;6.306;2023-06-01T06:48:15;102250.38;;;19.40;48.38
73455;BME280;61690;51.824;6.306;2023-06-01T06:50:40;102251.22;;;19.40;48.46
73455;BME280;61690;51.824;6.306;2023-06-01T06:53:09;102249.47;;;19.41;48.48
73455;BME280;61690;51.824;6.306;2023-06-01T06:55:34;102258.22;;;19.42;48.36
73455;BME280;61690;51.824;6.306;2023-06-01T06:58:00;102253.72;;;19.44;48.23
73455;BME280;61690;51.824;6.306;2023-06-01T07:00:26;102250.25;;;19.43;48.43
73455;BME280;61690;51.824;6.306;2023-06-01T07:02:52;102253.84;;;19.40;48.00
73455;BME280;61690;51.824;6.306;2023-06-01T07:05:17;102256.50;;;19.40;48.13
73455;BME280;61690;51.824;6.306;2023-06-01T07:07:43;102254.75;;;19.41;48.26
73455;BME280;61690;51.824;6.306;2023-06-01T07:10:08;102264.34;;;19.42;48.38
73455;BME280;61690;51.824;6.306;2023-06-01T07:12:33;102258.94;;;19.45;48.34
73455;BME280;61690;51.824;6.306;2023-06-01T07:14:59;102260.63;;;19.46;48.44
73455;BME280;61690;51.824;6.306;2023-06-01T07:17:24;102268.53;;;19.46;48.37
73455;BME280;61690;51.824;6.306;2023-06-01T07:19:50;102264.16;;;19.47;48.49
73455;BME280;61690;51.824;6.306;2023-06-01T07:22:15;102259.72;;;19.47;48.37
73455;BME280;61690;51.824;6.306;2023-06-01T07:24:42;102250.19;;;19.45;48.17
73455;BME280;61690;51.824;6.306;2023-06-01T07:27:07;102259.34;;;19.55;48.20
73455;BME280;61690;51.824;6.306;2023-06-01T07:29:33;102259.75;;;19.65;47.96
73455;BME280;61690;51.824;6.306;2023-06-01T07:31:59;102267.09;;;19.77;48.22
73455;BME280;61690;51.824;6.306;2023-06-01T07:34:24;102260.59;;;19.84;48.22
73455;BME280;61690;51.824;6.306;2023-06-01T07:36:50;102258.59;;;19.89;48.41
73455;BME280;61690;51.824;6.306;2023-06-01T07:39:16;102265.44;;;19.93;48.08
73455;BME280;61690;51.824;6.306;2023-06-01T07:41:44;102263.44;;;19.98;48.34
73455;BME280;61690;51.824;6.306;2023-06-01T07:44:10;102258.94;;;20.01;48.29
73455;BME280;61690;51.824;6.306;2023-06-01T07:46:35;102258.09;;;20.00;48.57
73455;BME280;61690;51.824;6.306;2023-06-01T07:49:01;102264.97;;;20.03;48.48
73455;BME280;61690;51.824;6.306;2023-06-01T07:51:26;102255.97;;;20.07;48.70
73455;BME280;61690;51.824;6.306;2023-06-01T07:53:54;102267.78;;;20.00;48.64
73455;BME280;61690;51.824;6.306;2023-06-01T07:56:23;102259.91;;;19.98;48.72
73455;BME280;61690;51.824;6.306;2023-06-01T07:58:51;102254.22;;;19.88;48.75
73455;BME280;61690;51.824;6.306;2023-06-01T08:01:17;102251.00;;;19.83;48.92
73455;BME280;61690;51.824;6.306;2023-06-01T08:03:43;102260.47;;;19.87;48.97
73455;BME280;61690;51.824;6.306;2023-06-01T08:06:09;102248.88;;;19.90;48.61
73455;BME280;61690;51.824;6.306;2023-06-01T08:08:34;102253.47;;;19.86;48.76
73455;BME280;61690;51.824;6.306;2023-06-01T08:11:00;102250.03;;;19.84;48.64
73455;BME280;61690;51.824;6.306;2023-06-01T08:13:25;102238.69;;;19.82;48.54
73455;BME280;61690;51.824;6.306;2023-06-01T08:15:51;102245.59;;;19.85;48.64
73455;BME280;61690;51.824;6.306;2023-06-01T08:18:18;102246.47;;;19.85;48.21
73455;BME280;61690;51.824;6.306;2023-06-01T08:20:45;102251.00;;;19.83;48.70
73455;BME280;61690;51.824;6.306;2023-06-01T08:23:10;102245.13;;;19.76;48.73
73455;BME280;61690;51.824;6.306;2023-06-01T08:25:36;102244.28;;;19.76;48.51
73455;BME280;61690;51.824;6.306;2023-06-01T08:28:01;102238.22;;;19.74;48.67
73455;BME280;61690;51.824;6.306;2023-06-01T08:30:27;102238.22;;;19.74;48.47
73455;BME280;61690;51.824;6.306;2023-06-01T08:32:52;102242.66;;;19.73;48.42
73455;BME280;61690;51.824;6.306;2023-06-01T08:35:18;102240.13;;;19.70;48.51
73455;BME280;61690;51.824;6.306;2023-06-01T08:37:46;102236.72;;;19.68;48.73
73455;BME280;61690;51.824;6.306;2023-06-01T08:40:12;102239.06;;;19.74;48.48
73455;BME280;61690;51.824;6.306;2023-06-01T08:42:57;102231.28;;;19.71;48.58
73455;BME280;61690;51.824;6.306;2023-06-01T08:45:23;102232.94;;;19.74;48.23
73455;BME280;61690;51.824;6.306;2023-06-01T08:47:48;102220.81;;;19.70;48.25
73455;BME280;61690;51.824;6.306;2023-06-01T08:50:15;102224.19;;;19.73;48.45
73455;BME280;61690;51.824;6.306;2023-06-01T08:52:43;102223.38;;;19.71;48.48
73455;BME280;61690;51.824;6.306;2023-06-01T08:55:08;102228.59;;;19.73;48.50
73455;BME280;61690;51.824;6.306;2023-06-01T08:57:34;102224.25;;;19.72;48.28
73455;BME280;61690;51.824;6.306;2023-06-01T08:59:59;102218.97;;;19.72;48.26
73455;BME280;61690;51.824;6.306;2023-06-01T09:02:25;102217.19;;;19.72;48.02
73455;BME280;61690;51.824;6.306;2023-06-01T09:04:51;102218.09;;;19.71;48.49
73455;BME280;61690;51.824;6.306;2023-06-01T09:07:17;102220.66;;;19.73;48.47
73455;BME280;61690;51.824;6.306;2023-06-01T09:09:43;102212.69;;;19.74;48.36
73455;BME280;61690;51.824;6.306;2023-06-01T09:12:29;102214.41;;;19.75;48.16
73455;BME280;61690;51.824;6.306;2023-06-01T09:17:32;102213.47;;;19.76;47.96
73455;BME280;61690;51.824;6.306;2023-06-01T09:19:58;102214.41;;;19.75;48.13
73455;BME280;61690;51.824;6.306;2023-06-01T09:22:23;102203.84;;;19.75;47.75
73455;BME280;61690;51.824;6.306;2023-06-01T09:24:58;102198.56;;;19.75;47.90
73455;BME280;61690;51.824;6.306;2023-06-01T09:27:25;102197.53;;;19.78;47.82
73455;BME280;61690;51.824;6.306;2023-06-01T09:29:55;102202.03;;;19.76;47.88
73455;BME280;61690;51.824;6.306;2023-06-01T09:32:20;102200.13;;;19.80;47.59
73455;BME280;61690;51.824;6.306;2023-06-01T09:34:49;102190.41;;;19.80;47.99
73455;BME280;61690;51.824;6.306;2023-06-01T09:37:14;102195.59;;;19.82;47.95
73455;BME280;61690;51.824;6.306;2023-06-01T09:39:40;102191.19;;;19.82;47.85
73455;BME280;61690;51.824;6.306;2023-06-01T09:42:06;102188.53;;;19.82;47.48
73455;BME280;61690;51.824;6.306;2023-06-01T09:44:39;102188.53;;;19.82;47.78
73455;BME280;61690;51.824;6.306;2023-06-01T09:47:07;102184.97;;;19.83;47.69
73455;BME280;61690;51.824;6.306;2023-06-01T09:49:35;102179.59;;;19.85;47.79
73455;BME280;61690;51.824;6.306;2023-06-01T09:55:04;102192.25;;;19.78;47.69
73455;BME280;61690;51.824;6.306;2023-06-01T09:57:29;102189.56;;;19.80;47.43
73455;BME280;61690;51.824;6.306;2023-06-01T09:59:55;102191.88;;;19.86;47.50
73455;BME280;61690;51.824;6.306;2023-06-01T10:02:22;102187.50;;;19.85;47.34
73455;BME280;61690;51.824;6.306;2023-06-01T10:04:50;102183.09;;;19.85;47.42
73455;BME280;61690;51.824;6.306;2023-06-01T10:07:17;102180.22;;;19.90;47.37
73455;BME280;61690;51.824;6.306;2023-06-01T10:09:45;102183.03;;;20.04;47.12
73455;BME280;61690;51.824;6.306;2023-06-01T10:12:11;102178.44;;;20.08;46.70
73455;BME280;61690;51.824;6.306;2023-06-01T10:14:37;102178.19;;;20.12;46.87
73455;BME280;61690;51.824;6.306;2023-06-01T10:17:04;102174.38;;;20.18;47.21
73455;BME280;61690;51.824;6.306;2023-06-01T10:19:30;102176.25;;;20.16;47.12
73455;BME280;61690;51.824;6.306;2023-06-01T10:21:58;102173.53;;;20.17;47.05
73455;BME280;61690;51.824;6.306;2023-06-01T10:24:25;102172.53;;;20.20;46.89
73455;BME280;61690;51.824;6.306;2023-06-01T10:27:01;102164.75;;;20.17;47.10
73455;BME280;61690;51.824;6.306;2023-06-01T10:29:31;102160.22;;;20.19;47.00
73455;BME280;61690;51.824;6.306;2023-06-01T10:31:56;102161.19;;;20.18;47.13
73455;BME280;61690;51.824;6.306;2023-06-01T10:34:42;102160.22;;;20.19;47.22
73455;BME280;61690;51.824;6.306;2023-06-01T10:39:39;102152.03;;;20.08;47.47
73455;BME280;61690;51.824;6.306;2023-06-01T10:47:04;102156.28;;;20.10;47.31
73455;BME280;61690;51.824;6.306;2023-06-01T10:52:29;102163.06;;;20.16;46.98
73455;BME280;61690;51.824;6.306;2023-06-01T10:55:18;102161.41;;;20.13;47.41
73455;BME280;61690;51.824;6.306;2023-06-01T10:57:45;102158.00;;;20.11;47.50
73455;BME280;61690;51.824;6.306;2023-06-01T11:00:14;102154.44;;;20.12;47.63
73455;BME280;61690;51.824;6.306;2023-06-01T11:02:51;102146.44;;;20.14;47.23
73455;BME280;61690;51.824;6.306;2023-06-01T11:08:02;102147.41;;;20.29;47.21
73455;BME280;61690;51.824;6.306;2023-06-01T11:13:43;102140.25;;;20.31;47.10
73455;BME280;61690;51.824;6.306;2023-06-01T11:21:19;102132.56;;;20.26;47.30
73455;BME280;61690;51.824;6.306;2023-06-01T11:23:58;102150.91;;;20.29;47.11
73455;BME280;61690;51.824;6.306;2023-06-01T11:26:29;102132.41;;;20.29;46.96
73455;BME280;61690;51.824;6.306;2023-06-01T11:29:09;102137.50;;;20.32;46.95
73455;BME280;61690;51.824;6.306;2023-06-01T11:31:38;102132.22;;;20.32;46.95
73455;BME280;61690;51.824;6.306;2023-06-01T11:34:05;102129.59;;;20.32;47.00
73455;BME280;61690;51.824;6.306;2023-06-01T11:36:39;102134.03;;;20.32;46.92
73455;BME280;61690;51.824;6.306;2023-06-01T11:39:04;102129.91;;;20.26;46.91
73455;BME280;61690;51.824;6.306;2023-06-01T11:41:34;102133.66;;;20.22;46.80
73455;BME280;61690;51.824;6.306;2023-06-01T11:44:00;102122.25;;;20.22;47.13
73455;BME280;61690;51.824;6.306;2023-06-01T11:46:25;102123.09;;;20.22;46.75
73455;BME280;61690;51.824;6.306;2023-06-01T11:49:05;102119.34;;;20.26;46.66
73455;BME280;61690;51.824;6.306;2023-06-01T11:51:32;102119.19;;;20.29;46.60
73455;BME280;61690;51.824;6.306;2023-06-01T11:54:02;102116.47;;;20.31;46.38
73455;BME280;61690;51.824;6.306;2023-06-01T11:56:33;102110.16;;;20.33;46.60
73455;BME280;61690;51.824;6.306;2023-06-01T11:59:02;102104.19;;;20.30;46.55
73455;BME280;61690;51.824;6.306;2023-06-01T12:01:33;102102.31;;;20.32;46.40
73455;BME280;61690;51.824;6.306;2023-06-01T12:03:58;102112.81;;;20.33;46.60
73455;BME280;61690;51.824;6.306;2023-06-01T12:06:27;102104.03;;;20.33;46.50
73455;BME280;61690;51.824;6.306;2023-06-01T12:08:54;102111.97;;;20.33;46.54
73455;BME280;61690;51.824;6.306;2023-06-01T12:11:21;102112.53;;;20.38;46.61
73455;BME280;61690;51.824;6.306;2023-06-01T12:13:49;102111.72;;;20.37;46.36
73455;BME280;61690;51.824;6.306;2023-06-01T12:16:15;102097.72;;;20.35;46.25
73455;BME280;61690;51.824;6.306;2023-06-01T12:18:42;102094.16;;;20.36;46.40
73455;BME280;61690;51.824;6.306;2023-06-01T12:21:11;102099.34;;;20.38;46.40
73455;BME280;61690;51.824;6.306;2023-06-01T12:23:37;102101.91;;;20.40;46.28
73455;BME280;61690;51.824;6.306;2023-06-01T12:26:03;102097.47;;;20.40;45.92
73455;BME280;61690;51.824;6.306;2023-06-01T12:28:28;102088.53;;;20.43;46.18
73455;BME280;61690;51.824;6.306;2023-06-01T12:31:12;102091.94;;;20.45;46.24
73455;BME280;61690;51.824;6.306;2023-06-01T12:33:39;102091.19;;;20.43;46.36
73455;BME280;61690;51.824;6.306;2023-06-01T12:36:08;102088.28;;;20.47;46.24
73455;BME280;61690;51.824;6.306;2023-06-01T12:38:55;102093.63;;;20.46;46.22
73455;BME280;61690;51.824;6.306;2023-06-01T12:41:20;102092.63;;;20.48;46.11
73455;BME280;61690;51.824;6.306;2023-06-01T12:43:47;102101.75;;;20.43;46.41
73455;BME280;61690;51.824;6.306;2023-06-01T12:46:24;102097.38;;;20.42;46.20
73455;BME280;61690;51.824;6.306;2023-06-01T12:48:51;102098.84;;;20.47;45.95
73455;BME280;61690;51.824;6.306;2023-06-01T12:51:16;102097.03;;;20.48;46.21
73455;BME280;61690;51.824;6.306;2023-06-01T12:53:42;102103.09;;;20.50;46.13
73455;BME280;61690;51.824;6.306;2023-06-01T12:56:08;102097.03;;;20.48;46.26
73455;BME280;61690;51.824;6.306;2023-06-01T12:58:34;102097.91;;;20.48;46.20
73455;BME280;61690;51.824;6.306;2023-06-01T13:00:59;102095.09;;;20.51;46.08
73455;BME280;61690;51.824;6.306;2023-06-01T13:03:24;102096.88;;;20.51;46.15
73455;BME280;61690;51.824;6.306;2023-06-01T13:05:50;102093.47;;;20.49;46.33
73455;BME280;61690;51.824;6.306;2023-06-01T13:08:16;102097.91;;;20.48;46.14
73455;BME280;61690;51.824;6.306;2023-06-01T13:10:42;102090.84;;;20.49;46.31
73455;BME280;61690;51.824;6.306;2023-06-01T13:13:08;102075.75;;;20.51;46.29
73455;BME280;61690;51.824;6.306;2023-06-01T13:15:34;102082.91;;;20.49;46.18
73455;BME280;61690;51.824;6.306;2023-06-01T13:18:00;102076.59;;;20.51;45.89
73455;BME280;61690;51.824;6.306;2023-06-01T13:20:25;102075.66;;;20.52;46.01
73455;BME280;61690;51.824;6.306;2023-06-01T13:22:51;102078.31;;;20.52;46.11